M/T Arcadia — SY7849 — position and weather

sailwx.info

Track history (hours):
 
Tides and Currents Weather Stations Pressure Air Temp Water Temp Dewpoint Dewpoint Depression Visibility Wind Speed Wind Dir Waves Ship Positions

M/T Arcadia

Last reported at 2014-Jul-29 20:13 UTC. Time now 2014-Jul-30 13:16 UTC.
Position N 35°46' E 024°00'.

Length 76 m; draft 4.6 m.

Type: Ship. MMSI: 240560000.

Date/timePositionNaut miles runAvg speedWind from/ knotsBaromVisibWave heightAir tempDewpointWater temp
2014-Jul-29 20:13N 35°46' E 024°00'23 7.7
2014-Jul-29 17:17N 36°08' E 023°55'10 8.5
2014-Jul-29 16:05N 36°18' E 023°53'6 8.5
2014-Jul-29 15:25N 36°24' E 023°52'8 8.6
2014-Jul-29 14:29N 36°32' E 023°50'20 8.4
2014-Jul-29 12:06N 36°51' E 023°45'7 7.9
2014-Jul-29 11:13N 36°58' E 023°43'29 7.9
2014-Jul-29 07:33N 37°27' E 023°35'8 8.4
2014-Jul-29 06:33N 37°34' E 023°30'8 8.4
2014-Jul-29 05:33N 37°39' E 023°22'8 8.1
2014-Jul-29 04:33N 37°45' E 023°15'11 8.9
2014-Jul-29 03:16N 37°54' E 023°06'4 0.2
2014-Jul-28 07:32N 37°51' E 023°10'9 8.7
2014-Jul-28 06:33N 37°44' E 023°16'8 8.1
2014-Jul-28 05:33N 37°39' E 023°24'8 8.6
2014-Jul-28 04:33N 37°35' E 023°33'9 8.9
2014-Jul-28 03:33N 37°27' E 023°37'11 9.3
2014-Jul-28 02:22N 37°16' E 023°38'8 9.8
2014-Jul-28 01:31N 37°07' E 023°39'9 9.7
2014-Jul-28 00:33N 36°58' E 023°41'10 9.5
2014-Jul-27 23:33N 36°49' E 023°44'10 9.3
2014-Jul-27 22:27N 36°39' E 023°46'8 9.0
2014-Jul-27 21:31N 36°31' E 023°48'9 9.2
2014-Jul-27 20:31N 36°21' E 023°50'9 9.3
2014-Jul-27 19:33N 36°13' E 023°51'9 9.3
2014-Jul-27 18:33N 36°03' E 023°54'9 9.3
2014-Jul-27 17:32N 35°54' E 023°56'12 9.5
2014-Jul-27 16:15N 35°42' E 023°60'8 0.4
2014-Jul-26 22:11N 35°35' E 024°03'6 8.4
2014-Jul-26 21:30N 35°40' E 024°01'9 8.7
2014-Jul-26 20:31N 35°49' E 023°59'8 8.7
2014-Jul-26 19:33N 35°57' E 023°56'100 8.3
2014-Jul-26 07:32N 37°34' E 023°30'9 8.4
2014-Jul-26 06:32N 37°39' E 023°21'8 8.1
2014-Jul-26 05:31N 37°46' E 023°15'12 0.9
2014-Jul-25 15:32N 37°55' E 023°05'9 1.1
2014-Jul-25 07:33N 37°49' E 023°12'9 8.6
2014-Jul-25 06:33N 37°41' E 023°18'9 8.5
2014-Jul-25 05:32N 37°38' E 023°28'35 8.4
2014-Jul-25 01:19N 37°04' E 023°41'7 9.2
2014-Jul-25 00:31N 36°57' E 023°43'10 9.0
2014-Jul-24 23:24N 36°47' E 023°45'8 9.1
2014-Jul-24 22:29N 36°39' E 023°47'8 9.0
2014-Jul-24 21:33N 36°31' E 023°49'33 0.9
2014-Jul-23 06:28N 35°58' E 023°57'22 7.6
2014-Jul-23 03:31N 36°20' E 023°51'7 7.7
2014-Jul-23 02:33N 36°27' E 023°49'8 7.5
2014-Jul-23 01:33N 36°34' E 023°47'8 7.3
2014-Jul-23 00:25N 36°43' E 023°45'8 8.1
2014-Jul-22 23:25N 36°51' E 023°43'7 7.9
2014-Jul-22 22:33N 36°57' E 023°41'19 7.8
2014-Jul-22 20:11N 37°16' E 023°38'14 8.0
2014-Jul-22 18:27N 37°29' E 023°34'7 8.2
2014-Jul-22 17:33N 37°35' E 023°29'8 7.8
2014-Jul-22 16:33N 37°40' E 023°21'8 7.4
2014-Jul-22 15:32N 37°46' E 023°15'8 7.9
2014-Jul-22 14:27N 37°52' E 023°08'3 0.1
2014-Jul-21 13:28N 37°55' E 023°06'0 0.0
2014-Jul-21 12:31N 37°55' E 023°06'0 0.0
2014-Jul-21 11:25N 37°55' E 023°06'9 2.3
2014-Jul-21 07:33N 37°48' E 023°13'9 8.7
2014-Jul-21 06:33N 37°40' E 023°18'58 8.1
2014-Jul-20 23:26N 36°47' E 023°47'34 8.6
2014-Jul-20 19:31N 36°14' E 023°54'9 8.8
2014-Jul-20 18:28N 36°05' E 023°56'10 8.7
2014-Jul-20 17:21N 35°55' E 023°57'5 0.3
2014-Jul-19 22:23N 36°01' E 023°57'7 7.4
2014-Jul-19 21:28N 36°07' E 023°55'  
Track history (hours):
 
Tides and Currents Weather Stations Pressure Air Temp Water Temp Dewpoint Dewpoint Depression Visibility Wind Speed Wind Dir Waves Ship Positions

M/T Arcadia

Last reported at 2014-Jul-29 20:13 UTC. Time now 2014-Jul-30 13:16 UTC.
Position N 35°46' E 024°00'.

Length 76 m; draft 4.6 m.

Type: Ship. MMSI: 240560000.

Date/timePositionNaut miles runAvg speedWind from/ knotsBaromVisibWave heightAir tempDewpointWater temp
2014-Jul-29 20:13N 35°46' E 024°00'23 7.7
2014-Jul-29 17:17N 36°08' E 023°55'10 8.5
2014-Jul-29 16:05N 36°18' E 023°53'6 8.5
2014-Jul-29 15:25N 36°24' E 023°52'8 8.6
2014-Jul-29 14:29N 36°32' E 023°50'20 8.4
2014-Jul-29 12:06N 36°51' E 023°45'7 7.9
2014-Jul-29 11:13N 36°58' E 023°43'29 7.9
2014-Jul-29 07:33N 37°27' E 023°35'8 8.4
2014-Jul-29 06:33N 37°34' E 023°30'8 8.4
2014-Jul-29 05:33N 37°39' E 023°22'8 8.1
2014-Jul-29 04:33N 37°45' E 023°15'11 8.9
2014-Jul-29 03:16N 37°54' E 023°06'4 0.2
2014-Jul-28 07:32N 37°51' E 023°10'9 8.7
2014-Jul-28 06:33N 37°44' E 023°16'8 8.1
2014-Jul-28 05:33N 37°39' E 023°24'8 8.6
2014-Jul-28 04:33N 37°35' E 023°33'9 8.9
2014-Jul-28 03:33N 37°27' E 023°37'11 9.3
2014-Jul-28 02:22N 37°16' E 023°38'8 9.8
2014-Jul-28 01:31N 37°07' E 023°39'9 9.7
2014-Jul-28 00:33N 36°58' E 023°41'10 9.5
2014-Jul-27 23:33N 36°49' E 023°44'10 9.3
2014-Jul-27 22:27N 36°39' E 023°46'8 9.0
2014-Jul-27 21:31N 36°31' E 023°48'9 9.2
2014-Jul-27 20:31N 36°21' E 023°50'9 9.3
2014-Jul-27 19:33N 36°13' E 023°51'9 9.3
2014-Jul-27 18:33N 36°03' E 023°54'9 9.3
2014-Jul-27 17:32N 35°54' E 023°56'12 9.5
2014-Jul-27 16:15N 35°42' E 023°60'8 0.4
2014-Jul-26 22:11N 35°35' E 024°03'6 8.4
2014-Jul-26 21:30N 35°40' E 024°01'9 8.7
2014-Jul-26 20:31N 35°49' E 023°59'8 8.7
2014-Jul-26 19:33N 35°57' E 023°56'100 8.3
2014-Jul-26 07:32N 37°34' E 023°30'9 8.4
2014-Jul-26 06:32N 37°39' E 023°21'8 8.1
2014-Jul-26 05:31N 37°46' E 023°15'12 0.9
2014-Jul-25 15:32N 37°55' E 023°05'9 1.1
2014-Jul-25 07:33N 37°49' E 023°12'9 8.6
2014-Jul-25 06:33N 37°41' E 023°18'9 8.5
2014-Jul-25 05:32N 37°38' E 023°28'35 8.4
2014-Jul-25 01:19N 37°04' E 023°41'7 9.2
2014-Jul-25 00:31N 36°57' E 023°43'10 9.0
2014-Jul-24 23:24N 36°47' E 023°45'8 9.1
2014-Jul-24 22:29N 36°39' E 023°47'8 9.0
2014-Jul-24 21:33N 36°31' E 023°49'33 0.9
2014-Jul-23 06:28N 35°58' E 023°57'22 7.6
2014-Jul-23 03:31N 36°20' E 023°51'7 7.7
2014-Jul-23 02:33N 36°27' E 023°49'8 7.5
2014-Jul-23 01:33N 36°34' E 023°47'8 7.3
2014-Jul-23 00:25N 36°43' E 023°45'8 8.1
2014-Jul-22 23:25N 36°51' E 023°43'7 7.9
2014-Jul-22 22:33N 36°57' E 023°41'19 7.8
2014-Jul-22 20:11N 37°16' E 023°38'14 8.0
2014-Jul-22 18:27N 37°29' E 023°34'7 8.2
2014-Jul-22 17:33N 37°35' E 023°29'8 7.8
2014-Jul-22 16:33N 37°40' E 023°21'8 7.4
2014-Jul-22 15:32N 37°46' E 023°15'8 7.9
2014-Jul-22 14:27N 37°52' E 023°08'3 0.1
2014-Jul-21 13:28N 37°55' E 023°06'0 0.0
2014-Jul-21 12:31N 37°55' E 023°06'0 0.0
2014-Jul-21 11:25N 37°55' E 023°06'9 2.3
2014-Jul-21 07:33N 37°48' E 023°13'9 8.7
2014-Jul-21 06:33N 37°40' E 023°18'58 8.1
2014-Jul-20 23:26N 36°47' E 023°47'34 8.6
2014-Jul-20 19:31N 36°14' E 023°54'9 8.8
2014-Jul-20 18:28N 36°05' E 023°56'10 8.7
2014-Jul-20 17:21N 35°55' E 023°57'5 0.3
2014-Jul-19 22:23N 36°01' E 023°57'7 7.4
2014-Jul-19 21:28N 36°07' E 023°55'  

Dump ship's entire track history